sensor_id;sensor_type;location;lat;lon;timestamp;pressure;altitude;pressure_sealevel;temperature;humidity
7930;BME280;4010;42.698;23.124;2023-12-20T00:02:15;118349.16;;;-140.64;100.00
7930;BME280;4010;42.698;23.124;2023-12-20T00:04:42;118349.16;;;-140.64;100.00
7930;BME280;4010;42.698;23.124;2023-12-20T00:07:09;118349.16;;;-140.64;100.00
7930;BME280;4010;42.698;23.124;2023-12-20T00:09:35;118349.16;;;-140.64;100.00
7930;BME280;4010;42.698;23.124;2023-12-20T00:12:02;118349.16;;;-140.64;100.00
7930;BME280;4010;42.698;23.124;2023-12-20T00:14:29;118349.16;;;-140.64;100.00
7930;BME280;4010;42.698;23.124;2023-12-20T00:16:57;118349.16;;;-140.64;100.00
7930;BME280;4010;42.698;23.124;2023-12-20T00:19:24;118349.16;;;-140.64;100.00
7930;BME280;4010;42.698;23.124;2023-12-20T00:21:51;118349.16;;;-140.64;100.00
7930;BME280;4010;42.698;23.124;2023-12-20T00:24:17;118349.16;;;-140.64;100.00
7930;BME280;4010;42.698;23.124;2023-12-20T00:26:44;118349.16;;;-140.64;100.00
7930;BME280;4010;42.698;23.124;2023-12-20T00:29:11;118349.16;;;-140.64;100.00
7930;BME280;4010;42.698;23.124;2023-12-20T00:31:37;118349.16;;;-140.64;100.00
7930;BME280;4010;42.698;23.124;2023-12-20T00:34:05;118349.16;;;-140.64;100.00
7930;BME280;4010;42.698;23.124;2023-12-20T00:36:32;118349.16;;;-140.64;100.00
7930;BME280;4010;42.698;23.124;2023-12-20T00:38:59;118349.16;;;-140.64;100.00
7930;BME280;4010;42.698;23.124;2023-12-20T00:41:25;118349.16;;;-140.64;100.00
7930;BME280;4010;42.698;23.124;2023-12-20T00:43:52;118349.16;;;-140.64;100.00
7930;BME280;4010;42.698;23.124;2023-12-20T00:46:19;118349.16;;;-140.64;100.00
7930;BME280;4010;42.698;23.124;2023-12-20T00:48:46;118349.16;;;-140.64;100.00
7930;BME280;4010;42.698;23.124;2023-12-20T00:51:14;118349.16;;;-140.64;100.00
7930;BME280;4010;42.698;23.124;2023-12-20T00:53:40;118349.16;;;-140.64;100.00
7930;BME280;4010;42.698;23.124;2023-12-20T00:56:08;118349.16;;;-140.64;100.00
7930;BME280;4010;42.698;23.124;2023-12-20T00:58:35;118349.16;;;-140.64;100.00
7930;BME280;4010;42.698;23.124;2023-12-20T01:01:02;118349.16;;;-140.64;100.00
7930;BME280;4010;42.698;23.124;2023-12-20T01:03:29;118349.16;;;-140.64;100.00
7930;BME280;4010;42.698;23.124;2023-12-20T01:05:55;118349.16;;;-140.64;100.00
7930;BME280;4010;42.698;23.124;2023-12-20T01:08:24;118349.16;;;-140.64;100.00
7930;BME280;4010;42.698;23.124;2023-12-20T01:10:50;118349.16;;;-140.64;100.00
7930;BME280;4010;42.698;23.124;2023-12-20T01:13:17;118349.16;;;-140.64;100.00
7930;BME280;4010;42.698;23.124;2023-12-20T01:15:44;118349.16;;;-140.64;100.00
7930;BME280;4010;42.698;23.124;2023-12-20T01:18:11;118349.16;;;-140.64;100.00
7930;BME280;4010;42.698;23.124;2023-12-20T01:20:37;118349.16;;;-140.64;100.00
7930;BME280;4010;42.698;23.124;2023-12-20T01:23:04;118349.16;;;-140.64;100.00
7930;BME280;4010;42.698;23.124;2023-12-20T01:25:32;118349.16;;;-140.64;100.00
7930;BME280;4010;42.698;23.124;2023-12-20T01:27:59;118349.16;;;-140.64;100.00
7930;BME280;4010;42.698;23.124;2023-12-20T01:30:25;118349.16;;;-140.64;100.00
7930;BME280;4010;42.698;23.124;2023-12-20T01:32:52;118349.16;;;-140.64;100.00
7930;BME280;4010;42.698;23.124;2023-12-20T01:35:19;118349.16;;;-140.64;100.00
7930;BME280;4010;42.698;23.124;2023-12-20T01:37:46;118349.16;;;-140.64;100.00
7930;BME280;4010;42.698;23.124;2023-12-20T01:40:13;118349.16;;;-140.64;100.00
7930;BME280;4010;42.698;23.124;2023-12-20T01:42:41;118349.16;;;-140.64;100.00
7930;BME280;4010;42.698;23.124;2023-12-20T01:45:08;118349.16;;;-140.64;100.00
7930;BME280;4010;42.698;23.124;2023-12-20T01:47:36;118349.16;;;-140.64;100.00
7930;BME280;4010;42.698;23.124;2023-12-20T01:50:04;118349.16;;;-140.64;100.00
7930;BME280;4010;42.698;23.124;2023-12-20T01:52:31;118349.16;;;-140.64;100.00
7930;BME280;4010;42.698;23.124;2023-12-20T01:54:59;118349.16;;;-140.64;100.00
7930;BME280;4010;42.698;23.124;2023-12-20T01:57:28;118349.16;;;-140.64;100.00
7930;BME280;4010;42.698;23.124;2023-12-20T01:59:56;118349.16;;;-140.64;100.00
7930;BME280;4010;42.698;23.124;2023-12-20T02:02:23;118349.16;;;-140.64;100.00
7930;BME280;4010;42.698;23.124;2023-12-20T02:04:51;118349.16;;;-140.64;100.00
7930;BME280;4010;42.698;23.124;2023-12-20T02:07:18;118349.16;;;-140.64;100.00
7930;BME280;4010;42.698;23.124;2023-12-20T02:09:45;118349.16;;;-140.64;100.00
7930;BME280;4010;42.698;23.124;2023-12-20T02:12:13;118349.16;;;-140.64;100.00
7930;BME280;4010;42.698;23.124;2023-12-20T02:14:39;118349.16;;;-140.64;100.00
7930;BME280;4010;42.698;23.124;2023-12-20T02:17:07;118349.16;;;-140.64;100.00
7930;BME280;4010;42.698;23.124;2023-12-20T02:19:34;118349.16;;;-140.64;100.00
7930;BME280;4010;42.698;23.124;2023-12-20T02:22:09;118349.16;;;-140.64;100.00
7930;BME280;4010;42.698;23.124;2023-12-20T02:24:36;118349.16;;;-140.64;100.00
7930;BME280;4010;42.698;23.124;2023-12-20T02:27:04;118349.16;;;-140.64;100.00
7930;BME280;4010;42.698;23.124;2023-12-20T02:29:32;118349.16;;;-140.64;100.00
7930;BME280;4010;42.698;23.124;2023-12-20T02:31:59;118349.16;;;-140.64;100.00
7930;BME280;4010;42.698;23.124;2023-12-20T02:34:26;118349.16;;;-140.64;100.00
7930;BME280;4010;42.698;23.124;2023-12-20T02:36:52;118349.16;;;-140.64;100.00
7930;BME280;4010;42.698;23.124;2023-12-20T02:39:21;118349.16;;;-140.64;100.00
7930;BME280;4010;42.698;23.124;2023-12-20T02:41:48;118349.16;;;-140.64;100.00
7930;BME280;4010;42.698;23.124;2023-12-20T02:44:15;118349.16;;;-140.64;100.00
7930;BME280;4010;42.698;23.124;2023-12-20T02:46:42;118349.16;;;-140.64;100.00
7930;BME280;4010;42.698;23.124;2023-12-20T02:49:09;118349.16;;;-140.64;100.00
7930;BME280;4010;42.698;23.124;2023-12-20T02:51:35;118349.16;;;-140.64;100.00
7930;BME280;4010;42.698;23.124;2023-12-20T02:54:04;118349.16;;;-140.64;100.00
7930;BME280;4010;42.698;23.124;2023-12-20T02:56:32;118349.16;;;-140.64;100.00
7930;BME280;4010;42.698;23.124;2023-12-20T02:58:59;118349.16;;;-140.64;100.00
7930;BME280;4010;42.698;23.124;2023-12-20T03:01:26;118349.16;;;-140.64;100.00
7930;BME280;4010;42.698;23.124;2023-12-20T03:03:52;118349.16;;;-140.64;100.00
7930;BME280;4010;42.698;23.124;2023-12-20T03:06:19;118349.16;;;-140.64;100.00
7930;BME280;4010;42.698;23.124;2023-12-20T03:08:46;118349.16;;;-140.64;100.00
7930;BME280;4010;42.698;23.124;2023-12-20T03:11:12;118349.16;;;-140.64;100.00
7930;BME280;4010;42.698;23.124;2023-12-20T03:13:41;118349.16;;;-140.64;100.00
7930;BME280;4010;42.698;23.124;2023-12-20T03:16:11;118349.16;;;-140.64;100.00
7930;BME280;4010;42.698;23.124;2023-12-20T03:18:38;118349.16;;;-140.64;100.00
7930;BME280;4010;42.698;23.124;2023-12-20T03:21:05;118349.16;;;-140.64;100.00
7930;BME280;4010;42.698;23.124;2023-12-20T03:23:32;118349.16;;;-140.64;100.00
7930;BME280;4010;42.698;23.124;2023-12-20T03:25:59;118349.16;;;-140.64;100.00
7930;BME280;4010;42.698;23.124;2023-12-20T03:28:26;118349.16;;;-140.64;100.00
7930;BME280;4010;42.698;23.124;2023-12-20T03:30:54;118349.16;;;-140.64;100.00
7930;BME280;4010;42.698;23.124;2023-12-20T03:33:21;118349.16;;;-140.64;100.00
7930;BME280;4010;42.698;23.124;2023-12-20T03:35:48;118349.16;;;-140.64;100.00
7930;BME280;4010;42.698;23.124;2023-12-20T03:38:14;118349.16;;;-140.64;100.00
7930;BME280;4010;42.698;23.124;2023-12-20T03:40:41;118349.16;;;-140.64;100.00
7930;BME280;4010;42.698;23.124;2023-12-20T03:43:08;118349.16;;;-140.64;100.00
7930;BME280;4010;42.698;23.124;2023-12-20T03:45:34;118349.16;;;-140.64;100.00
7930;BME280;4010;42.698;23.124;2023-12-20T03:48:03;118349.16;;;-140.64;100.00
7930;BME280;4010;42.698;23.124;2023-12-20T03:50:30;118349.16;;;-140.64;100.00
7930;BME280;4010;42.698;23.124;2023-12-20T03:52:57;118349.16;;;-140.64;100.00
7930;BME280;4010;42.698;23.124;2023-12-20T03:55:23;118349.16;;;-140.64;100.00
7930;BME280;4010;42.698;23.124;2023-12-20T03:57:50;118349.16;;;-140.64;100.00
7930;BME280;4010;42.698;23.124;2023-12-20T04:00:17;118349.16;;;-140.64;100.00
7930;BME280;4010;42.698;23.124;2023-12-20T04:02:44;118349.16;;;-140.64;100.00
7930;BME280;4010;42.698;23.124;2023-12-20T04:05:12;118349.16;;;-140.64;100.00
7930;BME280;4010;42.698;23.124;2023-12-20T04:07:39;118349.16;;;-140.64;100.00
7930;BME280;4010;42.698;23.124;2023-12-20T04:10:06;118349.16;;;-140.64;100.00
7930;BME280;4010;42.698;23.124;2023-12-20T04:12:33;118349.16;;;-140.64;100.00
7930;BME280;4010;42.698;23.124;2023-12-20T04:15:00;118349.16;;;-140.64;100.00
7930;BME280;4010;42.698;23.124;2023-12-20T04:17:28;118349.16;;;-140.64;100.00
7930;BME280;4010;42.698;23.124;2023-12-20T04:19:55;118349.16;;;-140.64;100.00
7930;BME280;4010;42.698;23.124;2023-12-20T04:22:23;118349.16;;;-140.64;100.00
7930;BME280;4010;42.698;23.124;2023-12-20T04:24:50;118349.16;;;-140.64;100.00
7930;BME280;4010;42.698;23.124;2023-12-20T04:27:17;118349.16;;;-140.64;100.00
7930;BME280;4010;42.698;23.124;2023-12-20T04:29:43;118349.16;;;-140.64;100.00
7930;BME280;4010;42.698;23.124;2023-12-20T04:32:10;118349.16;;;-140.64;100.00
7930;BME280;4010;42.698;23.124;2023-12-20T04:34:37;118349.16;;;-140.64;100.00
7930;BME280;4010;42.698;23.124;2023-12-20T04:37:03;118349.16;;;-140.64;100.00
7930;BME280;4010;42.698;23.124;2023-12-20T04:39:32;118349.16;;;-140.64;100.00
7930;BME280;4010;42.698;23.124;2023-12-20T04:41:58;118349.16;;;-140.64;100.00
7930;BME280;4010;42.698;23.124;2023-12-20T04:44:25;118349.16;;;-140.64;100.00
7930;BME280;4010;42.698;23.124;2023-12-20T04:46:52;118349.16;;;-140.64;100.00
7930;BME280;4010;42.698;23.124;2023-12-20T04:49:18;118349.16;;;-140.64;100.00
7930;BME280;4010;42.698;23.124;2023-12-20T04:51:45;118349.16;;;-140.64;100.00
7930;BME280;4010;42.698;23.124;2023-12-20T04:54:12;118349.16;;;-140.64;100.00
7930;BME280;4010;42.698;23.124;2023-12-20T04:56:40;118349.16;;;-140.64;100.00
7930;BME280;4010;42.698;23.124;2023-12-20T04:59:07;118349.16;;;-140.64;100.00
7930;BME280;4010;42.698;23.124;2023-12-20T05:01:34;118349.16;;;-140.64;100.00
7930;BME280;4010;42.698;23.124;2023-12-20T05:04:00;118349.16;;;-140.64;100.00
7930;BME280;4010;42.698;23.124;2023-12-20T05:06:27;118349.16;;;-140.64;100.00
7930;BME280;4010;42.698;23.124;2023-12-20T05:08:54;118349.16;;;-140.64;100.00
7930;BME280;4010;42.698;23.124;2023-12-20T05:11:21;118349.16;;;-140.64;100.00
7930;BME280;4010;42.698;23.124;2023-12-20T05:13:49;118349.16;;;-140.64;100.00
7930;BME280;4010;42.698;23.124;2023-12-20T05:16:15;118349.16;;;-140.64;100.00
7930;BME280;4010;42.698;23.124;2023-12-20T05:18:43;118349.16;;;-140.64;100.00
7930;BME280;4010;42.698;23.124;2023-12-20T05:21:10;118349.16;;;-140.64;100.00
7930;BME280;4010;42.698;23.124;2023-12-20T05:23:37;118349.16;;;-140.64;100.00
7930;BME280;4010;42.698;23.124;2023-12-20T05:26:03;118349.16;;;-140.64;100.00
7930;BME280;4010;42.698;23.124;2023-12-20T05:28:30;118349.16;;;-140.64;100.00
7930;BME280;4010;42.698;23.124;2023-12-20T05:30:58;118349.16;;;-140.64;100.00
7930;BME280;4010;42.698;23.124;2023-12-20T05:33:25;118349.16;;;-140.64;100.00
7930;BME280;4010;42.698;23.124;2023-12-20T05:35:51;118349.16;;;-140.64;100.00
7930;BME280;4010;42.698;23.124;2023-12-20T05:38:18;118349.16;;;-140.64;100.00
7930;BME280;4010;42.698;23.124;2023-12-20T05:40:45;118349.16;;;-140.64;100.00
7930;BME280;4010;42.698;23.124;2023-12-20T05:43:11;118349.16;;;-140.64;100.00
7930;BME280;4010;42.698;23.124;2023-12-20T05:45:38;118349.16;;;-140.64;100.00
7930;BME280;4010;42.698;23.124;2023-12-20T05:48:07;118349.16;;;-140.64;100.00
7930;BME280;4010;42.698;23.124;2023-12-20T05:50:33;118349.16;;;-140.64;100.00
7930;BME280;4010;42.698;23.124;2023-12-20T05:53:02;118349.16;;;-140.64;100.00
7930;BME280;4010;42.698;23.124;2023-12-20T05:55:28;118349.16;;;-140.64;100.00
7930;BME280;4010;42.698;23.124;2023-12-20T05:57:55;118349.16;;;-140.64;100.00
7930;BME280;4010;42.698;23.124;2023-12-20T06:00:22;118349.16;;;-140.64;100.00
7930;BME280;4010;42.698;23.124;2023-12-20T06:02:49;118349.16;;;-140.64;100.00
7930;BME280;4010;42.698;23.124;2023-12-20T06:05:17;118349.16;;;-140.64;100.00
7930;BME280;4010;42.698;23.124;2023-12-20T06:07:45;118349.16;;;-140.64;100.00
7930;BME280;4010;42.698;23.124;2023-12-20T06:10:13;118349.16;;;-140.64;100.00
7930;BME280;4010;42.698;23.124;2023-12-20T06:12:40;118349.16;;;-140.64;100.00
7930;BME280;4010;42.698;23.124;2023-12-20T06:15:07;118349.16;;;-140.64;100.00
7930;BME280;4010;42.698;23.124;2023-12-20T06:17:34;118349.16;;;-140.64;100.00
7930;BME280;4010;42.698;23.124;2023-12-20T06:20:01;118349.16;;;-140.64;100.00
7930;BME280;4010;42.698;23.124;2023-12-20T06:22:34;118349.16;;;-140.64;100.00
7930;BME280;4010;42.698;23.124;2023-12-20T06:25:01;118349.16;;;-140.64;100.00
7930;BME280;4010;42.698;23.124;2023-12-20T06:27:28;118349.16;;;-140.64;100.00
7930;BME280;4010;42.698;23.124;2023-12-20T06:29:55;118349.16;;;-140.64;100.00
7930;BME280;4010;42.698;23.124;2023-12-20T06:32:22;118349.16;;;-140.64;100.00
7930;BME280;4010;42.698;23.124;2023-12-20T06:34:49;118349.16;;;-140.64;100.00
7930;BME280;4010;42.698;23.124;2023-12-20T06:37:16;118349.16;;;-140.64;100.00
7930;BME280;4010;42.698;23.124;2023-12-20T06:39:44;118349.16;;;-140.64;100.00
7930;BME280;4010;42.698;23.124;2023-12-20T06:42:12;118349.16;;;-140.64;100.00
7930;BME280;4010;42.698;23.124;2023-12-20T06:44:38;118349.16;;;-140.64;100.00
7930;BME280;4010;42.698;23.124;2023-12-20T06:47:05;118349.16;;;-140.64;100.00
7930;BME280;4010;42.698;23.124;2023-12-20T06:49:32;118349.16;;;-140.64;100.00
7930;BME280;4010;42.698;23.124;2023-12-20T06:51:58;118349.16;;;-140.64;100.00
7930;BME280;4010;42.698;23.124;2023-12-20T06:54:25;118349.16;;;-140.64;100.00
7930;BME280;4010;42.698;23.124;2023-12-20T06:56:53;118349.16;;;-140.64;99.24
7930;BME280;4010;42.698;23.124;2023-12-20T06:59:20;118349.16;;;-140.64;99.79
7930;BME280;4010;42.698;23.124;2023-12-20T07:01:48;118349.16;;;-140.64;99.29
7930;BME280;4010;42.698;23.124;2023-12-20T07:04:15;118349.16;;;-140.64;97.88
7930;BME280;4010;42.698;23.124;2023-12-20T07:06:45;118349.16;;;-140.64;99.36
7930;BME280;4010;42.698;23.124;2023-12-20T07:09:13;118349.16;;;-140.64;99.43
7930;BME280;4010;42.698;23.124;2023-12-20T07:11:40;118349.16;;;-140.64;97.37
7930;BME280;4010;42.698;23.124;2023-12-20T07:14:08;118349.16;;;-140.64;97.70
7930;BME280;4010;42.698;23.124;2023-12-20T07:16:35;118349.16;;;-140.64;99.45
7930;BME280;4010;42.698;23.124;2023-12-20T07:19:01;118349.16;;;-140.64;100.00
7930;BME280;4010;42.698;23.124;2023-12-20T07:21:28;118349.16;;;-140.64;99.74
7930;BME280;4010;42.698;23.124;2023-12-20T07:23:55;118349.16;;;-140.64;97.62
7930;BME280;4010;42.698;23.124;2023-12-20T07:26:22;118349.16;;;-140.64;98.99
7930;BME280;4010;42.698;23.124;2023-12-20T07:28:48;118349.16;;;-140.64;98.86
7930;BME280;4010;42.698;23.124;2023-12-20T07:31:16;118349.16;;;-140.64;99.07
7930;BME280;4010;42.698;23.124;2023-12-20T07:33:43;118349.16;;;-140.64;98.26
7930;BME280;4010;42.698;23.124;2023-12-20T07:36:10;118349.16;;;-140.64;98.89
7930;BME280;4010;42.698;23.124;2023-12-20T07:38:38;118349.16;;;-140.64;100.00
7930;BME280;4010;42.698;23.124;2023-12-20T07:41:04;118349.16;;;-140.64;100.00
7930;BME280;4010;42.698;23.124;2023-12-20T07:43:31;118349.16;;;-140.64;98.16
7930;BME280;4010;42.698;23.124;2023-12-20T07:46:04;118349.16;;;-140.64;97.85
7930;BME280;4010;42.698;23.124;2023-12-20T07:48:32;118349.16;;;-140.64;97.52
7930;BME280;4010;42.698;23.124;2023-12-20T07:50:59;118349.16;;;-140.64;97.68
7930;BME280;4010;42.698;23.124;2023-12-20T07:53:25;118349.16;;;-140.64;98.28
7930;BME280;4010;42.698;23.124;2023-12-20T07:55:52;118349.16;;;-140.64;99.13
7930;BME280;4010;42.698;23.124;2023-12-20T07:58:19;118349.16;;;-140.64;98.08
7930;BME280;4010;42.698;23.124;2023-12-20T08:00:46;118349.16;;;-140.64;99.29
7930;BME280;4010;42.698;23.124;2023-12-20T08:03:13;118349.16;;;-140.64;100.00
7930;BME280;4010;42.698;23.124;2023-12-20T08:05:41;118349.16;;;-140.64;99.67
7930;BME280;4010;42.698;23.124;2023-12-20T08:08:07;118349.16;;;-140.64;98.65
7930;BME280;4010;42.698;23.124;2023-12-20T08:10:35;118349.16;;;-140.64;97.91
7930;BME280;4010;42.698;23.124;2023-12-20T08:13:02;118349.16;;;-140.64;98.13
7930;BME280;4010;42.698;23.124;2023-12-20T08:15:28;118349.16;;;-140.64;98.13
7930;BME280;4010;42.698;23.124;2023-12-20T08:17:54;118349.16;;;-140.64;97.80
7930;BME280;4010;42.698;23.124;2023-12-20T08:20:21;118349.16;;;-140.64;95.72
7930;BME280;4010;42.698;23.124;2023-12-20T08:22:49;118349.16;;;-140.64;96.16
7930;BME280;4010;42.698;23.124;2023-12-20T08:25:16;118349.16;;;-140.64;92.98
7930;BME280;4010;42.698;23.124;2023-12-20T08:27:43;118349.16;;;-140.64;92.89
7930;BME280;4010;42.698;23.124;2023-12-20T08:30:10;118349.16;;;-140.64;92.19
7930;BME280;4010;42.698;23.124;2023-12-20T08:32:37;118349.16;;;-140.64;92.41
7930;BME280;4010;42.698;23.124;2023-12-20T08:35:05;118349.16;;;-140.64;91.73
7930;BME280;4010;42.698;23.124;2023-12-20T08:37:31;118349.16;;;-140.64;92.06
7930;BME280;4010;42.698;23.124;2023-12-20T08:39:59;118349.16;;;-140.64;91.58
7930;BME280;4010;42.698;23.124;2023-12-20T08:42:26;118349.16;;;-140.64;90.27
7930;BME280;4010;42.698;23.124;2023-12-20T08:44:56;118349.16;;;-140.64;91.20
7930;BME280;4010;42.698;23.124;2023-12-20T08:47:23;118349.16;;;-140.64;90.31
7930;BME280;4010;42.698;23.124;2023-12-20T08:49:50;118349.16;;;-140.64;91.51
7930;BME280;4010;42.698;23.124;2023-12-20T08:52:18;118349.16;;;-140.64;91.59
7930;BME280;4010;42.698;23.124;2023-12-20T08:54:44;118349.16;;;-140.64;90.75
7930;BME280;4010;42.698;23.124;2023-12-20T08:57:12;118349.16;;;-140.64;90.98
7930;BME280;4010;42.698;23.124;2023-12-20T08:59:39;118349.16;;;-140.64;90.93
7930;BME280;4010;42.698;23.124;2023-12-20T09:02:06;118349.16;;;-140.64;91.54
7930;BME280;4010;42.698;23.124;2023-12-20T09:04:32;118349.16;;;-140.64;91.93
7930;BME280;4010;42.698;23.124;2023-12-20T09:07:00;118349.16;;;-140.64;86.98
7930;BME280;4010;42.698;23.124;2023-12-20T09:09:27;118349.16;;;-140.64;86.10
7930;BME280;4010;42.698;23.124;2023-12-20T09:11:54;118349.16;;;-140.64;86.22
7930;BME280;4010;42.698;23.124;2023-12-20T09:14:22;118349.16;;;-140.64;85.03
7930;BME280;4010;42.698;23.124;2023-12-20T09:16:49;118349.16;;;-140.64;84.98
7930;BME280;4010;42.698;23.124;2023-12-20T09:19:17;118349.16;;;-140.64;83.87
7930;BME280;4010;42.698;23.124;2023-12-20T09:21:43;118349.16;;;-140.64;85.12
7930;BME280;4010;42.698;23.124;2023-12-20T09:24:10;118349.16;;;-140.64;85.91
7930;BME280;4010;42.698;23.124;2023-12-20T09:26:37;118349.16;;;-140.64;85.72
7930;BME280;4010;42.698;23.124;2023-12-20T09:29:05;118349.16;;;-140.64;83.63
7930;BME280;4010;42.698;23.124;2023-12-20T09:31:36;118349.16;;;-140.64;84.44
7930;BME280;4010;42.698;23.124;2023-12-20T09:34:03;118349.16;;;-140.64;83.72
7930;BME280;4010;42.698;23.124;2023-12-20T09:36:29;118349.16;;;-140.64;82.50
7930;BME280;4010;42.698;23.124;2023-12-20T09:39:01;118349.16;;;-140.64;83.25
7930;BME280;4010;42.698;23.124;2023-12-20T09:41:28;118349.16;;;-140.64;83.02
7930;BME280;4010;42.698;23.124;2023-12-20T09:43:58;118349.16;;;-140.64;82.36
7930;BME280;4010;42.698;23.124;2023-12-20T09:46:28;118349.16;;;-140.64;82.23
7930;BME280;4010;42.698;23.124;2023-12-20T09:48:59;118349.16;;;-140.64;82.58
7930;BME280;4010;42.698;23.124;2023-12-20T09:51:27;118349.16;;;-140.64;82.10
7930;BME280;4010;42.698;23.124;2023-12-20T09:53:55;118349.16;;;-140.64;82.25
7930;BME280;4010;42.698;23.124;2023-12-20T09:56:24;118349.16;;;-140.64;81.44
7930;BME280;4010;42.698;23.124;2023-12-20T09:58:52;118349.16;;;-140.64;82.01
7930;BME280;4010;42.698;23.124;2023-12-20T10:01:20;118349.16;;;-140.64;82.65
7930;BME280;4010;42.698;23.124;2023-12-20T10:03:47;118349.16;;;-140.64;81.36
7930;BME280;4010;42.698;23.124;2023-12-20T10:06:15;118349.16;;;-140.64;81.27
7930;BME280;4010;42.698;23.124;2023-12-20T10:08:42;118349.16;;;-140.64;79.50
7930;BME280;4010;42.698;23.124;2023-12-20T10:11:09;118349.16;;;-140.64;79.18
7930;BME280;4010;42.698;23.124;2023-12-20T10:13:39;118349.16;;;-140.64;76.88
7930;BME280;4010;42.698;23.124;2023-12-20T10:16:07;118349.16;;;-140.64;76.22
7930;BME280;4010;42.698;23.124;2023-12-20T10:18:34;118349.16;;;-140.64;75.74
7930;BME280;4010;42.698;23.124;2023-12-20T10:21:01;118349.16;;;-140.64;73.34
7930;BME280;4010;42.698;23.124;2023-12-20T10:23:30;118349.16;;;-140.64;74.11
7930;BME280;4010;42.698;23.124;2023-12-20T10:25:57;118349.16;;;-140.64;75.74
7930;BME280;4010;42.698;23.124;2023-12-20T10:28:24;118349.16;;;-140.64;76.26
7930;BME280;4010;42.698;23.124;2023-12-20T10:30:53;118349.16;;;-140.64;75.29
7930;BME280;4010;42.698;23.124;2023-12-20T10:33:24;118349.16;;;-140.64;77.35
7930;BME280;4010;42.698;23.124;2023-12-20T10:35:52;118349.16;;;-140.64;78.36
7930;BME280;4010;42.698;23.124;2023-12-20T10:38:19;118349.16;;;-140.64;79.27
7930;BME280;4010;42.698;23.124;2023-12-20T10:40:47;118349.16;;;-140.64;79.97
7930;BME280;4010;42.698;23.124;2023-12-20T10:43:15;118349.16;;;-140.64;80.27
7930;BME280;4010;42.698;23.124;2023-12-20T10:45:42;118349.16;;;-140.64;82.43
7930;BME280;4010;42.698;23.124;2023-12-20T10:48:10;118349.16;;;-140.64;81.60
7930;BME280;4010;42.698;23.124;2023-12-20T10:50:37;118349.16;;;-140.64;83.19
7930;BME280;4010;42.698;23.124;2023-12-20T10:53:06;118349.16;;;-140.64;83.96
7930;BME280;4010;42.698;23.124;2023-12-20T10:55:33;118349.16;;;-140.64;84.55
7930;BME280;4010;42.698;23.124;2023-12-20T10:58:06;118349.16;;;-140.64;85.27
7930;BME280;4010;42.698;23.124;2023-12-20T11:00:35;118349.16;;;-140.64;86.07
7930;BME280;4010;42.698;23.124;2023-12-20T11:03:06;118349.16;;;-140.64;85.89
7930;BME280;4010;42.698;23.124;2023-12-20T11:05:39;118349.16;;;-140.64;86.87
7930;BME280;4010;42.698;23.124;2023-12-20T11:08:11;118349.16;;;-140.64;85.93
7930;BME280;4010;42.698;23.124;2023-12-20T11:10:43;118349.16;;;-140.64;86.75
7930;BME280;4010;42.698;23.124;2023-12-20T11:13:20;118349.16;;;-140.64;87.06
7930;BME280;4010;42.698;23.124;2023-12-20T11:15:48;118349.16;;;-140.64;86.42
7930;BME280;4010;42.698;23.124;2023-12-20T11:18:16;118349.16;;;-140.64;86.45
7930;BME280;4010;42.698;23.124;2023-12-20T11:20:42;118349.16;;;-140.64;86.19
7930;BME280;4010;42.698;23.124;2023-12-20T11:23:09;118349.16;;;-140.64;86.28
7930;BME280;4010;42.698;23.124;2023-12-20T11:25:46;118349.16;;;-140.64;87.31
7930;BME280;4010;42.698;23.124;2023-12-20T11:28:14;118349.16;;;-140.64;87.49
7930;BME280;4010;42.698;23.124;2023-12-20T11:30:43;118349.16;;;-140.64;86.36
7930;BME280;4010;42.698;23.124;2023-12-20T11:33:13;118349.16;;;-140.64;86.40
7930;BME280;4010;42.698;23.124;2023-12-20T11:35:39;118349.16;;;-140.64;86.12
7930;BME280;4010;42.698;23.124;2023-12-20T11:38:08;118349.16;;;-140.64;86.15
7930;BME280;4010;42.698;23.124;2023-12-20T11:40:35;118349.16;;;-140.64;85.20
7930;BME280;4010;42.698;23.124;2023-12-20T11:43:02;118349.16;;;-140.64;84.81
7930;BME280;4010;42.698;23.124;2023-12-20T11:45:29;118349.16;;;-140.64;84.95
7930;BME280;4010;42.698;23.124;2023-12-20T11:47:58;118349.16;;;-140.64;84.75
7930;BME280;4010;42.698;23.124;2023-12-20T11:50:25;118349.16;;;-140.64;84.16
7930;BME280;4010;42.698;23.124;2023-12-20T11:52:54;118349.16;;;-140.64;84.45
7930;BME280;4010;42.698;23.124;2023-12-20T11:55:20;118349.16;;;-140.64;84.38
7930;BME280;4010;42.698;23.124;2023-12-20T11:57:47;118349.16;;;-140.64;84.97
7930;BME280;4010;42.698;23.124;2023-12-20T12:00:15;118349.16;;;-140.64;84.79
7930;BME280;4010;42.698;23.124;2023-12-20T12:02:41;118349.16;;;-140.64;84.15
7930;BME280;4010;42.698;23.124;2023-12-20T12:05:10;118349.16;;;-140.64;84.63
7930;BME280;4010;42.698;23.124;2023-12-20T12:07:36;118349.16;;;-140.64;85.01
7930;BME280;4010;42.698;23.124;2023-12-20T12:10:04;118349.16;;;-140.64;84.72
7930;BME280;4010;42.698;23.124;2023-12-20T12:12:31;118349.16;;;-140.64;84.14
7930;BME280;4010;42.698;23.124;2023-12-20T12:14:58;118349.16;;;-140.64;83.90
7930;BME280;4010;42.698;23.124;2023-12-20T12:17:25;118349.16;;;-140.64;83.90
7930;BME280;4010;42.698;23.124;2023-12-20T12:20:02;118349.16;;;-140.64;83.30
7930;BME280;4010;42.698;23.124;2023-12-20T12:22:31;118349.16;;;-140.64;83.16
7930;BME280;4010;42.698;23.124;2023-12-20T12:24:59;118349.16;;;-140.64;82.71
7930;BME280;4010;42.698;23.124;2023-12-20T12:27:35;118349.16;;;-140.64;82.37
7930;BME280;4010;42.698;23.124;2023-12-20T12:30:05;118349.16;;;-140.64;82.22
7930;BME280;4010;42.698;23.124;2023-12-20T12:32:33;118349.16;;;-140.64;82.28
7930;BME280;4010;42.698;23.124;2023-12-20T12:34:59;118349.16;;;-140.64;82.35
7930;BME280;4010;42.698;23.124;2023-12-20T12:37:26;118349.16;;;-140.64;82.17